createdAt,value
2019-01-26T00:00:20.359Z,4
2019-01-26T00:01:20.341Z,4
2019-01-26T00:02:20.335Z,4
2019-01-26T00:03:20.314Z,4
2019-01-26T00:04:20.288Z,4
2019-01-26T00:05:20.268Z,4
2019-01-26T00:06:20.259Z,4
2019-01-26T00:07:20.235Z,4
2019-01-26T00:08:20.215Z,4
2019-01-26T00:09:20.202Z,4
2019-01-26T00:10:20.197Z,4
2019-01-26T00:11:20.173Z,4
2019-01-26T00:12:20.153Z,4
2019-01-26T00:13:20.132Z,4
2019-01-26T00:14:20.118Z,4
2019-01-26T00:15:20.109Z,4
2019-01-26T00:16:25.849Z,4
2019-01-26T00:17:20.062Z,4
2019-01-26T00:18:20.041Z,4
2019-01-26T00:19:20.030Z,4
2019-01-26T00:20:20.016Z,4
2019-01-26T00:21:19.992Z,4
2019-01-26T00:22:19.989Z,4
2019-01-26T00:23:19.958Z,4
2019-01-26T00:24:19.944Z,4
2019-01-26T00:25:19.923Z,4
2019-01-26T00:26:19.905Z,4
2019-01-26T00:27:19.889Z,4
2019-01-26T00:28:19.881Z,4
2019-01-26T00:29:19.855Z,4
2019-01-26T00:30:19.838Z,4
2019-01-26T00:31:19.818Z,4
2019-01-26T00:32:19.807Z,4
2019-01-26T00:33:19.785Z,4
2019-01-26T00:34:19.782Z,4
2019-01-26T00:35:19.752Z,4
2019-01-26T00:36:19.736Z,4
2019-01-26T00:37:19.720Z,4
2019-01-26T00:38:19.699Z,4
2019-01-26T00:39:19.679Z,4
2019-01-26T00:40:19.681Z,4
2019-01-26T00:41:19.643Z,4
2019-01-26T00:42:19.633Z,4
2019-01-26T00:43:19.616Z,4
2019-01-26T00:44:19.591Z,4
2019-01-26T00:45:19.575Z,4
2019-01-26T00:46:19.572Z,4
2019-01-26T00:47:19.541Z,4
2019-01-26T00:48:19.526Z,4
2019-01-26T00:49:19.509Z,4
2019-01-26T00:50:19.488Z,4
2019-01-26T00:51:24.236Z,4
2019-01-26T00:52:19.456Z,4
2019-01-26T00:53:19.439Z,4
2019-01-26T00:54:19.422Z,4
2019-01-26T00:55:19.404Z,4
2019-01-26T00:56:19.390Z,4
2019-01-26T00:57:19.369Z,4
2019-01-26T00:58:23.498Z,4
2019-01-26T00:59:19.335Z,4
2019-01-26T01:00:19.318Z,4
2019-01-26T01:01:19.300Z,4
2019-01-26T01:02:19.282Z,4
2019-01-26T01:03:19.270Z,4
2019-01-26T01:04:19.257Z,4
2019-01-26T01:05:19.242Z,4
2019-01-26T01:06:19.212Z,4
2019-01-26T01:07:19.196Z,4
2019-01-26T01:08:19.176Z,4
2019-01-26T01:09:19.161Z,4
2019-01-26T01:10:19.156Z,4
2019-01-26T01:11:19.143Z,4
2019-01-26T01:12:19.116Z,4
2019-01-26T01:13:19.094Z,4
2019-01-26T01:14:19.074Z,4
2019-01-26T01:15:19.065Z,4
2019-01-26T01:16:19.043Z,4
2019-01-26T01:17:19.022Z,4
2019-01-26T01:18:19.009Z,4
2019-01-26T01:19:18.996Z,4
2019-01-26T01:20:18.978Z,4
2019-01-26T01:21:18.956Z,4
2019-01-26T01:22:18.943Z,4
2019-01-26T01:23:18.943Z,4
2019-01-26T01:24:18.909Z,4
2019-01-26T01:25:18.901Z,4
2019-01-26T01:26:18.869Z,4
2019-01-26T01:27:18.854Z,4
2019-01-26T01:28:18.835Z,4
2019-01-26T01:29:18.819Z,4
2019-01-26T01:30:18.801Z,4
2019-01-26T01:31:18.781Z,4
2019-01-26T01:32:18.769Z,4
2019-01-26T01:33:20.274Z,4
2019-01-26T01:34:18.742Z,4
2019-01-26T01:35:18.718Z,4
2019-01-26T01:36:18.696Z,4
2019-01-26T01:37:18.678Z,4
2019-01-26T01:38:18.657Z,4
2019-01-26T01:39:18.701Z,4
2019-01-26T01:40:18.621Z,4
2019-01-26T01:41:18.615Z,4
2019-01-26T01:42:18.601Z,4
2019-01-26T01:43:18.574Z,4
2019-01-26T01:44:18.559Z,4
2019-01-26T01:45:18.540Z,4
2019-01-26T01:46:18.564Z,4
2019-01-26T01:47:18.503Z,4
2019-01-26T01:48:18.485Z,4
2019-01-26T01:49:18.467Z,4
2019-01-26T01:50:18.456Z,4
2019-01-26T01:51:18.434Z,4
2019-01-26T01:52:18.413Z,4
2019-01-26T01:53:18.399Z,4
2019-01-26T01:54:18.386Z,4
2019-01-26T01:55:18.366Z,4
2019-01-26T01:56:18.357Z,4
2019-01-26T01:57:18.335Z,4
2019-01-26T01:58:18.314Z,4
2019-01-26T01:59:18.296Z,4
2019-01-26T02:00:18.279Z,4
2019-01-26T02:01:18.258Z,4
2019-01-26T02:02:18.243Z,4
2019-01-26T02:03:18.226Z,4
2019-01-26T02:04:18.209Z,4
2019-01-26T02:05:18.200Z,4
2019-01-26T02:06:18.173Z,4
2019-01-26T02:07:18.158Z,4
2019-01-26T02:08:18.141Z,4
2019-01-26T02:09:18.121Z,4
2019-01-26T02:10:18.111Z,4
2019-01-26T02:11:18.087Z,4
2019-01-26T02:12:18.071Z,4
2019-01-26T02:13:18.050Z,4
2019-01-26T02:14:18.045Z,4
2019-01-26T02:15:18.016Z,4
2019-01-26T02:16:18.003Z,4
2019-01-26T02:17:17.983Z,4
2019-01-26T02:18:17.966Z,4
2019-01-26T02:19:17.946Z,4
2019-01-26T02:20:17.938Z,4
2019-01-26T02:21:17.911Z,4
2019-01-26T02:22:17.909Z,4
2019-01-26T02:23:17.881Z,4
2019-01-26T02:24:17.855Z,4
2019-01-26T02:25:17.870Z,4
2019-01-26T02:26:17.833Z,4
2019-01-26T02:27:17.813Z,4
2019-01-26T02:28:17.794Z,4
2019-01-26T02:29:17.532Z,4
2019-01-26T02:30:17.772Z,4
2019-01-26T02:31:17.765Z,4
2019-01-26T02:32:17.724Z,4
2019-01-26T02:33:17.709Z,4
2019-01-26T02:34:17.690Z,4
2019-01-26T02:35:17.672Z,4
2019-01-26T02:36:17.665Z,4
2019-01-26T02:37:17.640Z,4
2019-01-26T02:38:17.628Z,4
2019-01-26T02:39:17.617Z,4
2019-01-26T02:40:17.584Z,4
2019-01-26T02:41:17.577Z,4
2019-01-26T02:42:17.561Z,4
2019-01-26T02:43:17.535Z,4
2019-01-26T02:44:17.515Z,4
2019-01-26T02:45:17.517Z,4
2019-01-26T02:46:17.488Z,4
2019-01-26T02:47:17.463Z,4
2019-01-26T02:48:17.458Z,4
2019-01-26T02:49:17.431Z,4
2019-01-26T02:50:17.425Z,4
2019-01-26T02:51:17.401Z,4
2019-01-26T02:52:17.382Z,4
2019-01-26T02:53:17.359Z,4
2019-01-26T02:54:17.349Z,4
2019-01-26T02:55:17.351Z,4
2019-01-26T02:56:17.316Z,4
2019-01-26T02:57:17.299Z,0
2019-01-26T02:58:17.277Z,0
2019-01-26T02:59:17.264Z,0
2019-01-26T03:00:17.237Z,0
2019-01-26T03:01:17.234Z,0
2019-01-26T03:02:17.222Z,0
2019-01-26T03:03:17.190Z,0
2019-01-26T03:04:17.172Z,0
2019-01-26T03:05:17.167Z,0
2019-01-26T03:06:17.139Z,0
2019-01-26T03:07:17.121Z,0
2019-01-26T03:08:17.108Z,0
2019-01-26T03:09:17.087Z,0
2019-01-26T03:10:17.075Z,0
2019-01-26T03:11:17.075Z,0
2019-01-26T03:12:17.040Z,0
2019-01-26T03:13:17.029Z,0
2019-01-26T03:14:17.004Z,0
2019-01-26T03:15:16.992Z,0
2019-01-26T03:16:17.039Z,0
2019-01-26T03:17:16.959Z,0
2019-01-26T03:18:16.930Z,0
2019-01-26T03:19:16.913Z,0
2019-01-26T03:20:16.905Z,0
2019-01-26T03:21:16.637Z,0
2019-01-26T03:22:16.864Z,0
2019-01-26T03:23:16.851Z,0
2019-01-26T03:24:16.830Z,0
2019-01-26T03:25:16.818Z,0
2019-01-26T03:26:16.791Z,0
2019-01-26T03:27:16.777Z,0
2019-01-26T03:28:16.758Z,0
2019-01-26T03:29:16.737Z,0
2019-01-26T03:30:16.730Z,0
2019-01-26T03:31:16.740Z,0
2019-01-26T03:32:16.744Z,0
2019-01-26T03:33:16.725Z,0
2019-01-26T03:34:16.656Z,0
2019-01-26T03:35:16.643Z,0
2019-01-26T03:36:16.622Z,0
2019-01-26T03:37:16.605Z,0
2019-01-26T03:38:16.596Z,0
2019-01-26T03:39:16.604Z,0
2019-01-26T03:40:16.547Z,0
2019-01-26T03:41:16.545Z,0
2019-01-26T03:42:16.516Z,0
2019-01-26T03:43:16.503Z,0
2019-01-26T03:44:16.483Z,0
2019-01-26T03:45:16.466Z,0
2019-01-26T03:46:16.447Z,0
2019-01-26T03:47:20.778Z,0
2019-01-26T03:48:16.411Z,0
2019-01-26T03:49:16.399Z,0
2019-01-26T03:50:16.388Z,0
2019-01-26T03:51:16.366Z,0
2019-01-26T03:52:16.343Z,0
2019-01-26T03:53:16.329Z,0
2019-01-26T03:54:16.322Z,0
2019-01-26T03:55:16.295Z,0
2019-01-26T03:56:16.279Z,0
2019-01-26T03:57:16.258Z,0
2019-01-26T03:58:16.255Z,0
2019-01-26T03:59:16.227Z,0
2019-01-26T04:00:16.209Z,0
2019-01-26T04:01:16.188Z,0
2019-01-26T04:02:15.929Z,0
2019-01-26T04:03:16.168Z,0
2019-01-26T04:04:16.568Z,0
2019-01-26T04:05:16.135Z,0
2019-01-26T04:06:16.107Z,0
2019-01-26T04:07:16.089Z,0
2019-01-26T04:08:16.067Z,0
2019-01-26T04:09:16.049Z,0
2019-01-26T04:10:16.058Z,0
2019-01-26T04:11:16.030Z,0
2019-01-26T04:12:16.001Z,0
2019-01-26T04:13:15.987Z,0
2019-01-26T04:14:15.980Z,0
2019-01-26T04:15:15.962Z,0
2019-01-26T04:16:15.955Z,0
2019-01-26T04:17:21.722Z,0
2019-01-26T04:18:15.898Z,0
2019-01-26T04:19:15.878Z,0
2019-01-26T04:20:15.870Z,0
2019-01-26T04:21:15.848Z,0
2019-01-26T04:22:15.827Z,0
2019-01-26T04:23:15.812Z,0
2019-01-26T04:24:15.806Z,0
2019-01-26T04:25:15.781Z,0
2019-01-26T04:26:15.758Z,0
2019-01-26T04:27:15.734Z,0
2019-01-26T04:28:15.720Z,0
2019-01-26T04:29:16.254Z,0
2019-01-26T04:30:15.687Z,0
2019-01-26T04:31:15.678Z,0
2019-01-26T04:32:15.656Z,0
2019-01-26T04:33:15.644Z,0
2019-01-26T04:34:15.621Z,0
2019-01-26T04:35:15.616Z,0
2019-01-26T04:36:15.586Z,0
2019-01-26T04:37:15.573Z,0
2019-01-26T04:38:15.578Z,0
2019-01-26T04:39:15.539Z,0
2019-01-26T04:40:15.533Z,0
2019-01-26T04:41:15.503Z,0
2019-01-26T04:42:15.500Z,0
2019-01-26T04:43:15.469Z,0
2019-01-26T04:44:15.464Z,0
2019-01-26T04:45:15.441Z,0
2019-01-26T04:46:15.422Z,0
2019-01-26T04:47:15.402Z,0
2019-01-26T04:48:15.386Z,0
2019-01-26T04:49:15.374Z,0
2019-01-26T04:50:15.401Z,0
2019-01-26T04:51:15.337Z,0
2019-01-26T04:52:15.329Z,0
2019-01-26T04:53:15.338Z,0
2019-01-26T04:54:15.289Z,0
2019-01-26T04:55:15.026Z,0
2019-01-26T04:56:15.291Z,0
2019-01-26T04:57:15.245Z,0
2019-01-26T04:58:15.216Z,0
2019-01-26T04:59:15.194Z,0
2019-01-26T05:00:15.180Z,0
2019-01-26T05:01:15.158Z,0
2019-01-26T05:02:15.147Z,0
2019-01-26T05:03:15.136Z,0
2019-01-26T05:04:15.113Z,0
2019-01-26T05:05:15.090Z,0
2019-01-26T05:06:15.073Z,0
2019-01-26T05:07:15.057Z,0
2019-01-26T05:08:15.038Z,0
2019-01-26T05:09:15.022Z,0
2019-01-26T05:10:15.023Z,0
2019-01-26T05:11:14.998Z,0
2019-01-26T05:12:14.988Z,0
2019-01-26T05:13:14.965Z,0
2019-01-26T05:14:14.938Z,0
2019-01-26T05:15:14.924Z,0
2019-01-26T05:16:14.908Z,0
2019-01-26T05:17:14.891Z,0
2019-01-26T05:18:14.874Z,0
2019-01-26T05:19:14.862Z,0
2019-01-26T05:20:14.844Z,0
2019-01-26T05:21:14.836Z,0
2019-01-26T05:22:14.805Z,0
2019-01-26T05:23:15.107Z,0
2019-01-26T05:24:14.782Z,0
2019-01-26T05:25:14.760Z,0
2019-01-26T05:26:14.740Z,0
2019-01-26T05:27:14.728Z,0
2019-01-26T05:28:14.707Z,0
2019-01-26T05:29:14.697Z,0
2019-01-26T05:30:14.676Z,0
2019-01-26T05:31:14.668Z,0
2019-01-26T05:32:14.644Z,0
2019-01-26T05:33:14.651Z,0
2019-01-26T05:34:14.610Z,0
2019-01-26T05:35:14.630Z,0
2019-01-26T05:36:14.575Z,0
2019-01-26T05:37:14.560Z,0
2019-01-26T05:38:14.550Z,0
2019-01-26T05:39:14.526Z,0
2019-01-26T05:40:14.518Z,0
2019-01-26T05:41:14.496Z,0
2019-01-26T05:42:14.488Z,0
2019-01-26T05:43:14.460Z,0
2019-01-26T05:44:14.445Z,0
2019-01-26T05:45:14.430Z,0
2019-01-26T05:46:14.415Z,0
2019-01-26T05:47:14.390Z,0
2019-01-26T05:48:14.383Z,0
2019-01-26T05:49:14.400Z,0
2019-01-26T05:50:14.352Z,0
2019-01-26T05:51:14.324Z,0
2019-01-26T05:52:14.309Z,0
2019-01-26T05:53:14.328Z,0
2019-01-26T05:54:14.278Z,0
2019-01-26T05:55:14.317Z,0
2019-01-26T05:56:14.264Z,0
2019-01-26T05:57:14.228Z,0
2019-01-26T05:58:14.215Z,0
2019-01-26T05:59:14.194Z,0
2019-01-26T06:00:14.185Z,0
2019-01-26T06:01:14.179Z,0
2019-01-26T06:02:14.145Z,0
2019-01-26T06:03:14.142Z,0
2019-01-26T06:04:14.116Z,0
2019-01-26T06:05:14.103Z,0
2019-01-26T06:06:14.100Z,0
2019-01-26T06:07:14.073Z,0
2019-01-26T06:08:14.076Z,0
2019-01-26T06:09:14.038Z,0
2019-01-26T06:10:14.013Z,0
2019-01-26T06:11:14.003Z,0
2019-01-26T06:12:13.997Z,0
2019-01-26T06:13:13.976Z,0
2019-01-26T06:14:13.963Z,0
2019-01-26T06:15:13.964Z,0
2019-01-26T06:16:13.933Z,0
2019-01-26T06:17:13.903Z,0
2019-01-26T06:18:13.887Z,0
2019-01-26T06:19:13.871Z,0
2019-01-26T06:20:13.857Z,0
2019-01-26T06:21:13.839Z,0
2019-01-26T06:22:13.821Z,0
2019-01-26T06:23:13.803Z,0
2019-01-26T06:24:13.789Z,0
2019-01-26T06:25:13.794Z,0
2019-01-26T06:26:13.755Z,4
2019-01-26T06:27:13.747Z,4
2019-01-26T06:28:13.729Z,4
2019-01-26T06:29:13.709Z,4
2019-01-26T06:30:13.694Z,4
2019-01-26T06:31:13.679Z,4
2019-01-26T06:32:13.660Z,4
2019-01-26T06:33:13.645Z,4
2019-01-26T06:34:13.630Z,8
2019-01-26T06:35:13.374Z,8
2019-01-26T06:36:13.596Z,8
2019-01-26T06:37:13.588Z,8
2019-01-26T06:38:13.566Z,12
2019-01-26T06:39:13.552Z,8
2019-01-26T06:40:13.533Z,12
2019-01-26T06:41:13.519Z,12
2019-01-26T06:42:13.509Z,16
2019-01-26T06:43:13.489Z,16
2019-01-26T06:44:13.470Z,20
2019-01-26T06:45:13.455Z,24
2019-01-26T06:46:13.439Z,24
2019-01-26T06:47:13.425Z,28
2019-01-26T06:48:13.412Z,32
2019-01-26T06:49:13.392Z,32
2019-01-26T06:50:13.376Z,40
2019-01-26T06:51:13.367Z,48
2019-01-26T06:52:13.348Z,52
2019-01-26T06:53:13.331Z,52
2019-01-26T06:54:13.321Z,60
2019-01-26T06:55:13.297Z,64
2019-01-26T06:56:13.283Z,68
2019-01-26T06:57:13.265Z,76
2019-01-26T06:58:13.253Z,84
2019-01-26T06:59:13.235Z,92
2019-01-26T07:00:13.226Z,104
2019-01-26T07:01:13.215Z,116
2019-01-26T07:02:13.188Z,128
2019-01-26T07:03:13.175Z,136
2019-01-26T07:04:13.173Z,148
2019-01-26T07:05:13.147Z,156
2019-01-26T07:06:13.128Z,176
2019-01-26T07:07:13.111Z,192
2019-01-26T07:08:13.093Z,204
2019-01-26T07:09:13.080Z,232
2019-01-26T07:10:13.070Z,256
2019-01-26T07:11:13.072Z,256
2019-01-26T07:12:13.032Z,268
2019-01-26T07:13:13.022Z,268
2019-01-26T07:14:13.004Z,264
2019-01-26T07:15:12.986Z,264
2019-01-26T07:16:12.976Z,268
2019-01-26T07:17:12.979Z,268
2019-01-26T07:18:16.714Z,272
2019-01-26T07:19:12.926Z,272
2019-01-26T07:20:12.916Z,276
2019-01-26T07:21:12.899Z,284
2019-01-26T07:22:12.880Z,296
2019-01-26T07:23:12.864Z,296
2019-01-26T07:24:12.852Z,296
2019-01-26T07:25:13.357Z,292
2019-01-26T07:26:12.823Z,288
2019-01-26T07:27:12.802Z,312
2019-01-26T07:28:12.799Z,320
2019-01-26T07:29:12.769Z,324
2019-01-26T07:30:12.758Z,336
2019-01-26T07:31:13.781Z,344
2019-01-26T07:32:12.725Z,356
2019-01-26T07:33:12.711Z,352
2019-01-26T07:34:12.700Z,360
2019-01-26T07:35:12.679Z,368
2019-01-26T07:36:12.668Z,388
2019-01-26T07:37:12.647Z,416
2019-01-26T07:38:18.454Z,432
2019-01-26T07:39:12.620Z,436
2019-01-26T07:40:12.599Z,440
2019-01-26T07:41:12.586Z,480
2019-01-26T07:42:12.574Z,524
2019-01-26T07:43:12.731Z,528
2019-01-26T07:44:12.547Z,548
2019-01-26T07:45:12.522Z,532
2019-01-26T07:46:12.512Z,516
2019-01-26T07:47:12.500Z,524
2019-01-26T07:48:19.104Z,540
2019-01-26T07:49:12.465Z,544
2019-01-26T07:50:12.458Z,556
2019-01-26T07:51:12.436Z,604
2019-01-26T07:52:12.465Z,656
2019-01-26T07:53:12.404Z,724
2019-01-26T07:54:12.391Z,776
2019-01-26T07:55:12.373Z,784
2019-01-26T07:56:12.356Z,756
2019-01-26T07:57:12.342Z,748
2019-01-26T07:58:12.373Z,760
2019-01-26T07:59:12.322Z,776
2019-01-26T08:00:12.300Z,780
2019-01-26T08:01:12.285Z,808
2019-01-26T08:02:12.270Z,840
2019-01-26T08:03:12.251Z,912
2019-01-26T08:04:12.252Z,948
2019-01-26T08:05:12.231Z,1012
2019-01-26T08:06:12.211Z,1124
2019-01-26T08:07:12.195Z,1220
2019-01-26T08:08:12.180Z,1256
2019-01-26T08:09:12.186Z,1240
2019-01-26T08:10:12.149Z,1212
2019-01-26T08:11:12.135Z,1168
2019-01-26T08:12:12.127Z,1148
2019-01-26T08:13:12.121Z,1132
2019-01-26T08:14:12.091Z,1148
2019-01-26T08:15:12.080Z,1160
2019-01-26T08:16:12.061Z,1160
2019-01-26T08:17:12.045Z,1120
2019-01-26T08:18:12.034Z,1116
2019-01-26T08:19:12.021Z,1136
2019-01-26T08:20:12.008Z,1148
2019-01-26T08:21:11.998Z,1140
2019-01-26T08:22:11.737Z,1208
2019-01-26T08:23:11.977Z,1300
2019-01-26T08:24:11.947Z,1324
2019-01-26T08:25:11.939Z,1324
2019-01-26T08:26:11.917Z,1344
2019-01-26T08:27:11.901Z,1436
2019-01-26T08:28:11.894Z,1568
2019-01-26T08:29:11.873Z,1684
2019-01-26T08:30:11.854Z,1784
2019-01-26T08:31:11.858Z,1916
2019-01-26T08:32:11.827Z,2048
2019-01-26T08:33:11.814Z,2136
2019-01-26T08:34:11.798Z,2152
2019-01-26T08:35:11.781Z,2072
2019-01-26T08:36:11.770Z,1944
2019-01-26T08:37:11.755Z,1872
2019-01-26T08:38:11.738Z,1812
2019-01-26T08:39:11.791Z,1796
2019-01-26T08:40:11.713Z,1844
2019-01-26T08:41:11.701Z,1864
2019-01-26T08:42:11.681Z,1932
2019-01-26T08:43:11.663Z,1980
2019-01-26T08:44:11.665Z,1988
2019-01-26T08:45:11.637Z,1960
2019-01-26T08:46:11.623Z,1936
2019-01-26T08:47:11.609Z,1876
2019-01-26T08:48:11.595Z,1808
2019-01-26T08:49:11.589Z,1808
2019-01-26T08:50:11.574Z,1780
2019-01-26T08:51:11.555Z,1812
2019-01-26T08:52:11.537Z,1836
2019-01-26T08:53:11.523Z,1860
2019-01-26T08:54:11.509Z,1936
2019-01-26T08:55:17.777Z,2072
2019-01-26T08:56:11.487Z,2112
2019-01-26T08:57:11.226Z,2120
2019-01-26T08:58:11.453Z,2152
2019-01-26T08:59:11.440Z,2108
2019-01-26T09:00:11.420Z,2012
2019-01-26T09:01:11.411Z,1864
2019-01-26T09:02:11.394Z,1732
2019-01-26T09:03:11.383Z,1736
2019-01-26T09:04:11.479Z,1792
2019-01-26T09:05:11.471Z,1816
2019-01-26T09:06:11.339Z,1908
2019-01-26T09:07:11.325Z,1976
2019-01-26T09:08:11.314Z,2072
2019-01-26T09:09:11.300Z,2244
2019-01-26T09:10:11.289Z,2376
2019-01-26T09:11:11.272Z,2384
2019-01-26T09:12:11.015Z,2340
2019-01-26T09:13:11.239Z,2440
2019-01-26T09:14:11.227Z,2488
2019-01-26T09:15:11.225Z,2476
2019-01-26T09:16:11.204Z,2400
2019-01-26T09:17:11.197Z,2464
2019-01-26T09:18:11.171Z,2436
2019-01-26T09:19:11.168Z,2580
2019-01-26T09:20:11.762Z,2448
2019-01-26T09:21:11.130Z,2328
2019-01-26T09:22:11.116Z,2328
2019-01-26T09:23:11.103Z,2296
2019-01-26T09:24:11.089Z,2324
2019-01-26T09:25:11.072Z,2304
2019-01-26T09:26:11.060Z,2268
2019-01-26T09:27:11.048Z,2268
2019-01-26T09:28:11.032Z,2164
2019-01-26T09:29:11.018Z,2044
2019-01-26T09:30:11.000Z,2040
2019-01-26T09:31:10.988Z,2052
2019-01-26T09:32:10.995Z,2008
2019-01-26T09:33:10.963Z,1984
2019-01-26T09:34:10.950Z,2016
2019-01-26T09:35:10.966Z,1988
2019-01-26T09:36:10.923Z,1964
2019-01-26T09:37:10.904Z,1964
2019-01-26T09:38:10.895Z,1920
2019-01-26T09:39:10.883Z,1864
2019-01-26T09:40:10.911Z,1816
2019-01-26T09:41:10.849Z,1764
2019-01-26T09:42:10.841Z,1792
2019-01-26T09:43:10.820Z,1792
2019-01-26T09:44:10.806Z,1816
2019-01-26T09:45:10.794Z,1808
2019-01-26T09:46:10.786Z,1744
2019-01-26T09:47:10.788Z,1812
2019-01-26T09:48:10.754Z,1880
2019-01-26T09:49:10.737Z,1948
2019-01-26T09:50:10.729Z,1984
2019-01-26T09:51:10.741Z,1936
2019-01-26T09:52:10.702Z,1912
2019-01-26T09:53:10.693Z,1908
2019-01-26T09:54:10.675Z,1976
2019-01-26T09:55:10.658Z,1952
2019-01-26T09:56:10.645Z,1956
2019-01-26T09:57:10.636Z,2020
2019-01-26T09:58:10.617Z,1988
2019-01-26T09:59:10.616Z,1896
2019-01-26T10:00:10.604Z,1892
2019-01-26T10:01:10.575Z,1892
2019-01-26T10:02:10.565Z,1912
2019-01-26T10:03:10.555Z,1916
2019-01-26T10:04:10.536Z,1820
2019-01-26T10:05:10.523Z,1864
2019-01-26T10:06:10.506Z,1896
2019-01-26T10:07:10.499Z,1960
2019-01-26T10:08:10.478Z,1908
2019-01-26T10:09:10.224Z,2028
2019-01-26T10:10:10.459Z,2144
2019-01-26T10:11:10.443Z,2252
2019-01-26T10:12:10.437Z,2352
2019-01-26T10:13:10.415Z,2444
2019-01-26T10:14:10.401Z,2512
2019-01-26T10:15:10.392Z,2496
2019-01-26T10:16:10.372Z,2504
2019-01-26T10:17:10.359Z,2560
2019-01-26T10:18:10.347Z,2456
2019-01-26T10:19:10.333Z,2532
2019-01-26T10:20:10.313Z,2676
2019-01-26T10:21:10.301Z,2876
2019-01-26T10:22:10.286Z,3144
2019-01-26T10:23:10.270Z,3132
2019-01-26T10:24:10.266Z,3132
2019-01-26T10:25:10.250Z,3216
2019-01-26T10:26:10.233Z,3276
2019-01-26T10:27:10.217Z,3228
2019-01-26T10:28:10.200Z,3300
2019-01-26T10:29:10.189Z,3220
2019-01-26T10:30:10.176Z,3084
2019-01-26T10:31:10.171Z,2956
2019-01-26T10:32:10.150Z,2956
2019-01-26T10:33:10.144Z,2688
2019-01-26T10:34:10.131Z,2628
2019-01-26T10:35:10.111Z,2772
2019-01-26T10:36:10.094Z,2728
2019-01-26T10:37:10.079Z,2912
2019-01-26T10:38:10.071Z,2872
2019-01-26T10:39:10.059Z,2964
2019-01-26T10:40:10.046Z,2940
2019-01-26T10:41:10.038Z,3004
2019-01-26T10:42:10.015Z,2968
2019-01-26T10:43:10.002Z,3008
2019-01-26T10:44:09.990Z,2980
2019-01-26T10:45:09.980Z,2724
2019-01-26T10:46:09.962Z,2552
2019-01-26T10:47:09.945Z,2520
2019-01-26T10:48:09.687Z,2540
2019-01-26T10:49:09.920Z,2596
2019-01-26T10:50:09.910Z,2748
2019-01-26T10:51:09.895Z,2720
2019-01-26T10:52:09.881Z,2680
2019-01-26T10:53:09.867Z,2688
2019-01-26T10:54:09.856Z,2780
2019-01-26T10:55:09.842Z,2700
2019-01-26T10:56:09.827Z,2904
2019-01-26T10:57:09.826Z,2984
2019-01-26T10:58:09.801Z,3176
2019-01-26T10:59:09.784Z,3228
2019-01-26T11:00:09.773Z,3248
2019-01-26T11:01:09.753Z,3220
2019-01-26T11:02:09.747Z,3188
2019-01-26T11:03:09.726Z,3160
2019-01-26T11:04:09.720Z,3512
2019-01-26T11:05:09.715Z,3616
2019-01-26T11:06:09.683Z,3696
2019-01-26T11:07:09.676Z,3760
2019-01-26T11:08:09.665Z,3944
2019-01-26T11:09:09.646Z,4324
2019-01-26T11:10:09.635Z,4448
2019-01-26T11:11:09.622Z,4324
2019-01-26T11:12:09.609Z,4208
2019-01-26T11:13:09.598Z,4012
2019-01-26T11:14:09.579Z,3944
2019-01-26T11:15:09.568Z,3728
2019-01-26T11:16:09.554Z,3516
2019-01-26T11:17:09.539Z,3560
2019-01-26T11:18:09.526Z,3476
2019-01-26T11:19:15.051Z,3540
2019-01-26T11:20:09.504Z,3356
2019-01-26T11:21:09.487Z,3448
2019-01-26T11:22:09.470Z,3220
2019-01-26T11:23:09.458Z,3160
2019-01-26T11:24:09.462Z,2876
2019-01-26T11:25:09.434Z,2848
2019-01-26T11:26:09.425Z,2928
2019-01-26T11:27:09.414Z,2984
2019-01-26T11:28:09.401Z,3088
2019-01-26T11:29:09.383Z,3204
2019-01-26T11:30:09.375Z,3420
2019-01-26T11:31:09.369Z,3500
2019-01-26T11:32:09.349Z,3720
2019-01-26T11:33:09.341Z,3904
2019-01-26T11:34:09.321Z,3988
2019-01-26T11:35:09.315Z,4044
2019-01-26T11:36:09.293Z,4004
2019-01-26T11:37:09.036Z,4128
2019-01-26T11:38:09.270Z,4204
2019-01-26T11:39:09.251Z,4144
2019-01-26T11:40:09.242Z,4132
2019-01-26T11:41:09.226Z,4048
2019-01-26T11:42:09.216Z,4228
2019-01-26T11:43:09.201Z,4296
2019-01-26T11:44:09.191Z,4252
2019-01-26T11:45:09.197Z,4152
2019-01-26T11:46:09.162Z,4028
2019-01-26T11:47:09.149Z,4080
2019-01-26T11:48:09.136Z,3972
2019-01-26T11:49:15.019Z,4028
2019-01-26T11:50:09.113Z,4224
2019-01-26T11:51:09.098Z,4284
2019-01-26T11:52:09.085Z,4264
2019-01-26T11:53:09.073Z,4160
2019-01-26T11:54:09.087Z,4136
2019-01-26T11:55:09.058Z,4192
2019-01-26T11:56:09.053Z,4268
2019-01-26T11:57:09.019Z,4344
2019-01-26T11:58:09.009Z,4484
2019-01-26T11:59:08.756Z,4632
2019-01-26T12:00:08.995Z,4716
2019-01-26T12:01:08.968Z,4872
2019-01-26T12:02:08.957Z,5420
2019-01-26T12:03:10.681Z,5708
2019-01-26T12:04:08.938Z,5972
2019-01-26T12:05:08.920Z,6000
2019-01-26T12:06:08.912Z,5744
2019-01-26T12:07:08.902Z,5436
2019-01-26T12:08:08.885Z,5276
2019-01-26T12:09:08.869Z,5368
2019-01-26T12:10:08.873Z,5316
2019-01-26T12:11:08.886Z,5280
2019-01-26T12:12:08.830Z,5372
2019-01-26T12:13:08.820Z,5592
2019-01-26T12:14:08.807Z,5224
2019-01-26T12:15:08.795Z,4916
2019-01-26T12:16:08.782Z,4556
2019-01-26T12:17:08.769Z,4248
2019-01-26T12:18:08.756Z,3992
2019-01-26T12:19:08.742Z,3968
2019-01-26T12:20:08.740Z,3996
2019-01-26T12:21:08.724Z,3940
2019-01-26T12:22:08.702Z,4380
2019-01-26T12:23:08.691Z,4560
2019-01-26T12:24:08.683Z,4724
2019-01-26T12:25:08.672Z,4920
2019-01-26T12:26:08.658Z,5208
2019-01-26T12:27:08.644Z,5276
2019-01-26T12:28:08.633Z,5024
2019-01-26T12:29:08.620Z,5252
2019-01-26T12:30:08.365Z,5168
2019-01-26T12:31:08.611Z,5136
2019-01-26T12:32:08.584Z,5020
2019-01-26T12:33:08.574Z,4900
2019-01-26T12:34:08.562Z,5148
2019-01-26T12:35:08.546Z,5100
2019-01-26T12:36:08.532Z,4856
2019-01-26T12:37:08.526Z,4748
2019-01-26T12:38:08.512Z,4508
2019-01-26T12:39:08.496Z,4316
2019-01-26T12:40:08.491Z,4272
2019-01-26T12:41:08.227Z,4048
2019-01-26T12:42:08.473Z,4064
2019-01-26T12:43:08.448Z,4240
2019-01-26T12:44:08.435Z,4100
2019-01-26T12:45:08.703Z,4288
2019-01-26T12:46:08.470Z,4524
2019-01-26T12:47:08.398Z,4512
2019-01-26T12:48:08.387Z,4672
2019-01-26T12:49:08.376Z,4724
2019-01-26T12:50:09.442Z,4740
2019-01-26T12:51:08.347Z,4608
2019-01-26T12:52:08.092Z,4488
2019-01-26T12:53:08.329Z,4656
2019-01-26T12:54:08.072Z,4916
2019-01-26T12:55:08.302Z,5260
2019-01-26T12:56:08.052Z,5324
2019-01-26T12:57:08.320Z,5456
2019-01-26T12:58:08.263Z,5864
2019-01-26T12:59:08.261Z,5636
2019-01-26T13:00:08.353Z,5976
2019-01-26T13:01:08.222Z,5948
2019-01-26T13:02:08.209Z,5568
2019-01-26T13:03:08.204Z,5448
2019-01-26T13:04:08.191Z,5100
2019-01-26T13:05:08.200Z,4968
2019-01-26T13:06:08.168Z,4496
2019-01-26T13:07:08.159Z,4344
2019-01-26T13:08:08.146Z,4216
2019-01-26T13:09:08.130Z,4108
2019-01-26T13:10:08.121Z,3936
2019-01-26T13:11:08.107Z,4024
2019-01-26T13:12:08.088Z,4224
2019-01-26T13:13:08.082Z,4184
2019-01-26T13:14:08.069Z,4484
2019-01-26T13:15:14.959Z,4884
2019-01-26T13:16:08.036Z,5276
2019-01-26T13:17:08.039Z,5376
2019-01-26T13:18:08.059Z,5304
2019-01-26T13:19:08.001Z,5388
2019-01-26T13:20:07.996Z,5152
2019-01-26T13:21:07.979Z,5284
2019-01-26T13:22:07.963Z,5080
2019-01-26T13:23:07.958Z,4784
2019-01-26T13:24:07.939Z,4732
2019-01-26T13:25:07.931Z,4480
2019-01-26T13:26:07.914Z,4508
2019-01-26T13:27:07.905Z,4440
2019-01-26T13:28:07.894Z,4768
2019-01-26T13:29:07.878Z,4792
2019-01-26T13:30:07.874Z,4976
2019-01-26T13:31:07.851Z,4868
2019-01-26T13:32:07.836Z,4908
2019-01-26T13:33:07.835Z,4560
2019-01-26T13:34:07.818Z,4344
2019-01-26T13:35:07.562Z,4192
2019-01-26T13:36:07.786Z,4028
2019-01-26T13:37:07.780Z,3864
2019-01-26T13:38:07.762Z,3968
2019-01-26T13:39:07.748Z,3856
2019-01-26T13:40:07.738Z,3880
2019-01-26T13:41:07.727Z,3836
2019-01-26T13:42:07.984Z,3748
2019-01-26T13:43:07.700Z,3640
2019-01-26T13:44:07.694Z,3492
2019-01-26T13:45:07.447Z,3436
2019-01-26T13:46:08.011Z,3232
2019-01-26T13:47:07.648Z,3004
2019-01-26T13:48:07.640Z,2832
2019-01-26T13:49:07.632Z,2812
2019-01-26T13:50:07.614Z,2772
2019-01-26T13:51:12.889Z,2716
2019-01-26T13:52:07.591Z,2800
2019-01-26T13:53:07.574Z,2788
2019-01-26T13:54:07.561Z,2752
2019-01-26T13:55:07.559Z,2840
2019-01-26T13:56:07.535Z,2896
2019-01-26T13:57:07.827Z,2812
2019-01-26T13:58:07.512Z,2964
2019-01-26T13:59:07.505Z,3124
2019-01-26T14:00:07.531Z,3124
2019-01-26T14:01:07.476Z,3328